createdAt,value
2023-06-07T00:00:46.767Z,63.31
2023-06-07T00:03:14.726Z,62.93
2023-06-07T00:05:41.490Z,63.69
2023-06-07T00:08:08.504Z,62.53
2023-06-07T00:10:35.541Z,63.37
2023-06-07T00:13:02.511Z,63.38
2023-06-07T00:15:29.459Z,63.89
2023-06-07T00:18:01.148Z,64.32
2023-06-07T00:20:28.850Z,64.63
2023-06-07T00:22:59.394Z,63.83
2023-06-07T00:25:26.766Z,63.81
2023-06-07T00:27:54.169Z,64.25
2023-06-07T00:30:21.165Z,63.87
2023-06-07T00:32:47.788Z,64.75
2023-06-07T00:35:15.561Z,64.07
2023-06-07T00:37:42.461Z,64.65
2023-06-07T00:40:09.497Z,63.97
2023-06-07T00:42:36.136Z,63.94
2023-06-07T00:45:03.146Z,64.02
2023-06-07T00:47:30.695Z,65.08
2023-06-07T00:49:57.485Z,64.53
2023-06-07T00:52:24.707Z,65.27
2023-06-07T00:54:52.264Z,64.78
2023-06-07T00:57:18.992Z,64.69
2023-06-07T00:59:46.427Z,65.16
2023-06-07T01:02:16.813Z,64.95
2023-06-07T01:04:43.979Z,64.83
2023-06-07T01:07:10.989Z,65.55
2023-06-07T01:09:37.740Z,64.52
2023-06-07T01:12:07.138Z,64.95
2023-06-07T01:14:35.481Z,64.72
2023-06-07T01:17:03.425Z,64.83
2023-06-07T01:19:31.212Z,64.92
2023-06-07T01:22:06.760Z,64.45
2023-06-07T01:24:36.831Z,65.26
2023-06-07T01:27:08.244Z,65.30
2023-06-07T01:29:35.412Z,65.28
2023-06-07T01:32:07.151Z,65.29
2023-06-07T01:34:35.747Z,65.35
2023-06-07T01:37:03.475Z,65.29
2023-06-07T01:39:31.662Z,65.82
2023-06-07T01:41:59.337Z,65.86
2023-06-07T01:44:27.544Z,66.11
2023-06-07T01:46:54.166Z,65.78
2023-06-07T01:49:21.072Z,64.99
2023-06-07T01:51:48.039Z,65.19
2023-06-07T01:54:16.331Z,65.26
2023-06-07T01:57:15.481Z,66.28
2023-06-07T02:00:07.335Z,65.98
2023-06-07T02:02:47.397Z,66.98
2023-06-07T02:05:19.522Z,66.67
2023-06-07T02:07:54.756Z,67.24
2023-06-07T02:10:24.593Z,68.22
2023-06-07T02:12:53.818Z,68.02
2023-06-07T02:15:21.549Z,68.21
2023-06-07T02:17:59.363Z,68.22
2023-06-07T02:20:27.545Z,67.80
2023-06-07T02:22:57.062Z,67.66
2023-06-07T02:25:27.542Z,67.97
2023-06-07T02:27:54.499Z,68.00
2023-06-07T02:30:21.583Z,67.84
2023-06-07T02:32:51.314Z,68.09
2023-06-07T02:35:18.928Z,68.14
2023-06-07T02:37:46.623Z,67.59
2023-06-07T02:40:14.514Z,67.89
2023-06-07T02:42:49.031Z,68.22
2023-06-07T02:45:16.131Z,67.63
2023-06-07T02:47:43.793Z,67.92
2023-06-07T02:50:10.810Z,68.31
2023-06-07T02:52:38.138Z,68.96
2023-06-07T02:55:05.241Z,68.32
2023-06-07T02:57:32.075Z,69.11
2023-06-07T02:59:59.381Z,68.85
2023-06-07T03:02:26.483Z,69.29
2023-06-07T03:04:54.077Z,68.37
2023-06-07T03:07:21.621Z,69.07
2023-06-07T03:09:48.742Z,68.89
2023-06-07T03:12:15.700Z,69.41
2023-06-07T03:14:43.535Z,68.96
2023-06-07T03:17:10.350Z,67.90
2023-06-07T03:19:37.262Z,68.52
2023-06-07T03:22:07.373Z,68.73
2023-06-07T03:24:35.502Z,68.31
2023-06-07T03:27:02.543Z,68.75
2023-06-07T03:29:31.365Z,68.24
2023-06-07T03:31:58.957Z,68.56
2023-06-07T03:34:27.829Z,69.05
2023-06-07T03:36:55.806Z,68.91
2023-06-07T03:39:22.420Z,68.95
2023-06-07T03:41:49.012Z,68.93
2023-06-07T03:44:15.653Z,68.18
2023-06-07T03:46:43.247Z,68.23
2023-06-07T03:49:10.135Z,67.72
2023-06-07T03:51:39.754Z,68.31
2023-06-07T03:54:06.774Z,68.17
2023-06-07T03:56:33.424Z,68.58
2023-06-07T03:59:02.844Z,67.78
2023-06-07T04:01:29.604Z,67.93
2023-06-07T04:03:56.478Z,68.05
2023-06-07T04:06:25.325Z,67.37
2023-06-07T04:09:00.563Z,67.26
2023-06-07T04:11:28.138Z,67.01
2023-06-07T04:13:54.829Z,66.04
2023-06-07T04:16:21.900Z,67.11
2023-06-07T04:18:48.609Z,66.97
2023-06-07T04:21:15.698Z,67.84
2023-06-07T04:23:42.764Z,67.37
2023-06-07T04:26:09.714Z,67.01
2023-06-07T04:28:36.909Z,66.99
2023-06-07T04:31:03.598Z,67.13
2023-06-07T04:33:30.363Z,67.09
2023-06-07T04:35:59.146Z,66.03
2023-06-07T04:38:26.883Z,65.69
2023-06-07T04:40:56.874Z,65.57
2023-06-07T04:43:24.235Z,66.27
2023-06-07T04:45:56.958Z,67.30
2023-06-07T04:48:29.964Z,66.24
2023-06-07T04:51:05.104Z,66.59
2023-06-07T04:53:38.078Z,67.07
2023-06-07T04:56:05.380Z,66.37
2023-06-07T04:58:32.660Z,67.03
2023-06-07T05:00:59.298Z,66.77
2023-06-07T05:03:26.219Z,64.92
2023-06-07T05:05:53.740Z,64.66
2023-06-07T05:08:21.707Z,64.46
2023-06-07T05:10:48.440Z,63.17
2023-06-07T05:13:15.112Z,63.73
2023-06-07T05:15:41.878Z,64.14
2023-06-07T05:18:08.704Z,62.04
2023-06-07T05:20:35.552Z,62.87
2023-06-07T05:23:03.637Z,61.81
2023-06-07T05:25:31.293Z,61.77
2023-06-07T05:28:11.562Z,60.53
2023-06-07T05:30:40.911Z,59.88
2023-06-07T05:33:08.210Z,59.80
2023-06-07T05:35:35.357Z,59.06
2023-06-07T05:38:02.434Z,58.69
2023-06-07T05:40:29.255Z,59.11
2023-06-07T05:42:57.595Z,56.65
2023-06-07T05:45:24.940Z,56.22
2023-06-07T05:47:51.960Z,55.96
2023-06-07T05:50:21.660Z,55.81
2023-06-07T05:52:57.238Z,54.17
2023-06-07T05:55:28.329Z,53.62
2023-06-07T05:57:58.698Z,53.80
2023-06-07T06:00:25.458Z,52.00
2023-06-07T06:02:54.082Z,51.89
2023-06-07T06:05:22.404Z,49.33
2023-06-07T06:07:49.105Z,50.10
2023-06-07T06:10:15.732Z,49.71
2023-06-07T06:12:42.381Z,49.57
2023-06-07T06:15:09.466Z,47.75
2023-06-07T06:17:36.079Z,47.11
2023-06-07T06:20:03.641Z,43.82
2023-06-07T06:22:30.801Z,41.22
2023-06-07T06:24:58.437Z,38.26
2023-06-07T06:27:25.716Z,37.10
2023-06-07T06:29:52.318Z,35.38
2023-06-07T06:32:19.013Z,34.79
2023-06-07T06:34:45.734Z,34.06
2023-06-07T06:37:12.373Z,34.22
2023-06-07T06:39:39.042Z,32.60
2023-06-07T06:42:06.688Z,32.43
2023-06-07T06:44:33.243Z,31.48
2023-06-07T06:46:59.925Z,32.07
2023-06-07T06:49:26.861Z,29.40
2023-06-07T06:51:53.482Z,30.09
2023-06-07T06:54:20.121Z,29.89
2023-06-07T06:56:46.784Z,29.79
2023-06-07T06:59:13.409Z,28.90
2023-06-07T07:01:46.811Z,29.16
2023-06-07T07:04:15.165Z,29.26
2023-06-07T07:06:42.772Z,29.34
2023-06-07T07:09:10.588Z,28.40
2023-06-07T07:11:38.013Z,29.76
2023-06-07T07:14:05.117Z,30.85
2023-06-07T07:16:32.494Z,30.69
2023-06-07T07:18:59.511Z,30.87
2023-06-07T07:21:28.189Z,32.10
2023-06-07T07:23:56.491Z,31.72
2023-06-07T07:26:23.308Z,29.65
2023-06-07T07:28:50.045Z,30.09
2023-06-07T07:31:16.628Z,30.37
2023-06-07T07:33:43.383Z,30.42
2023-06-07T07:36:10.737Z,31.17
2023-06-07T07:38:38.681Z,31.31
2023-06-07T07:41:08.333Z,30.54
2023-06-07T07:43:37.762Z,30.37
2023-06-07T07:46:05.169Z,31.48
2023-06-07T07:48:31.951Z,29.81
2023-06-07T07:50:58.889Z,28.88
2023-06-07T07:53:25.589Z,27.52
2023-06-07T07:55:52.359Z,27.47
2023-06-07T07:58:19.227Z,27.84
2023-06-07T08:00:45.840Z,29.67
2023-06-07T08:03:13.956Z,30.50
2023-06-07T08:05:40.846Z,31.87
2023-06-07T08:08:07.588Z,30.17
2023-06-07T08:10:34.407Z,29.96
2023-06-07T08:13:01.046Z,30.06
2023-06-07T08:15:27.840Z,30.08
2023-06-07T08:17:54.526Z,29.44
2023-06-07T08:20:22.022Z,29.20
2023-06-07T08:22:51.557Z,29.85
2023-06-07T08:25:18.675Z,27.54
2023-06-07T08:27:46.949Z,27.46
2023-06-07T08:30:14.157Z,28.75
2023-06-07T08:32:42.969Z,27.93
2023-06-07T08:35:11.754Z,26.08
2023-06-07T08:37:39.170Z,25.01
2023-06-07T08:40:07.371Z,25.21
2023-06-07T08:42:34.439Z,24.59
2023-06-07T08:45:01.951Z,24.41
2023-06-07T08:47:29.726Z,24.31
2023-06-07T08:49:57.530Z,23.97
2023-06-07T08:52:27.595Z,24.56
2023-06-07T08:54:59.711Z,24.72
2023-06-07T08:57:27.801Z,25.36
2023-06-07T08:59:55.185Z,26.15
2023-06-07T09:02:21.860Z,26.57
2023-06-07T09:04:48.570Z,25.89
2023-06-07T09:07:15.710Z,26.45
2023-06-07T09:09:44.560Z,27.27
2023-06-07T09:12:12.050Z,29.80
2023-06-07T09:14:38.809Z,29.69
2023-06-07T09:17:05.614Z,30.53
2023-06-07T09:19:39.810Z,30.25
2023-06-07T09:22:09.238Z,29.97
2023-06-07T09:24:36.464Z,29.59
2023-06-07T09:27:04.564Z,30.32
2023-06-07T09:29:40.138Z,29.45
2023-06-07T09:32:25.246Z,29.63
2023-06-07T09:34:54.333Z,27.59
2023-06-07T09:37:23.956Z,26.97
2023-06-07T09:39:54.300Z,28.17
2023-06-07T09:42:21.890Z,26.08
2023-06-07T09:44:49.184Z,25.60
2023-06-07T09:47:23.558Z,26.09
2023-06-07T09:49:56.076Z,23.77
2023-06-07T09:52:23.097Z,24.82
2023-06-07T09:54:49.706Z,23.41
2023-06-07T09:57:25.514Z,22.90
2023-06-07T10:00:00.509Z,22.96
2023-06-07T10:02:29.800Z,22.90
2023-06-07T10:04:59.411Z,23.37
2023-06-07T10:07:35.858Z,22.59
2023-06-07T10:10:04.079Z,21.43
2023-06-07T10:12:33.609Z,22.84
2023-06-07T10:15:04.642Z,24.56
2023-06-07T10:18:07.119Z,23.61
2023-06-07T10:20:45.554Z,22.27
2023-06-07T10:23:21.337Z,21.32
2023-06-07T10:25:54.772Z,22.64
2023-06-07T10:28:31.079Z,20.35
2023-06-07T10:31:05.323Z,22.18
2023-06-07T10:33:34.060Z,21.63
2023-06-07T10:36:01.049Z,22.72
2023-06-07T10:38:31.994Z,20.91
2023-06-07T10:41:00.170Z,21.76
2023-06-07T10:43:32.059Z,23.39
2023-06-07T10:46:22.745Z,24.56
2023-06-07T10:48:53.122Z,25.20
2023-06-07T10:51:52.952Z,25.17
2023-06-07T10:54:33.578Z,27.61
2023-06-07T10:57:01.973Z,28.12
2023-06-07T10:59:28.682Z,27.30
2023-06-07T11:02:23.242Z,27.11
2023-06-07T11:04:55.284Z,27.48
2023-06-07T11:07:29.763Z,27.69
2023-06-07T11:10:19.225Z,26.97
2023-06-07T11:12:46.037Z,26.07
2023-06-07T11:15:19.350Z,23.95
2023-06-07T11:18:00.611Z,24.60
2023-06-07T11:20:39.522Z,24.24
2023-06-07T11:23:32.354Z,24.14
2023-06-07T11:26:09.935Z,22.42
2023-06-07T11:28:38.920Z,22.64
2023-06-07T11:31:10.792Z,22.75
2023-06-07T11:33:38.077Z,23.92
2023-06-07T11:36:10.476Z,21.90
2023-06-07T11:38:38.539Z,23.38
2023-06-07T11:41:06.770Z,24.24
2023-06-07T11:43:33.813Z,23.94
2023-06-07T11:46:01.131Z,25.99
2023-06-07T11:48:29.416Z,25.43
2023-06-07T11:50:56.717Z,25.46
2023-06-07T11:53:24.203Z,23.75
2023-06-07T11:55:51.032Z,23.51
2023-06-07T11:58:17.688Z,25.00
2023-06-07T12:00:45.191Z,25.28
2023-06-07T12:03:12.742Z,25.89
2023-06-07T12:05:39.585Z,25.85
2023-06-07T12:08:12.565Z,24.59
2023-06-07T12:10:39.373Z,25.02
2023-06-07T12:13:17.272Z,22.95
2023-06-07T12:15:59.480Z,23.16
2023-06-07T12:18:28.717Z,25.01
2023-06-07T12:21:08.381Z,25.03
2023-06-07T12:23:37.163Z,26.14
2023-06-07T12:26:11.938Z,27.52
2023-06-07T12:28:40.741Z,27.17
2023-06-07T12:31:17.229Z,26.51
2023-06-07T12:34:03.390Z,24.67
2023-06-07T12:36:34.347Z,24.80
2023-06-07T12:39:04.742Z,24.83
2023-06-07T12:41:33.676Z,24.80
2023-06-07T12:44:03.171Z,24.39
2023-06-07T12:46:33.063Z,25.65
2023-06-07T12:48:59.934Z,24.62
2023-06-07T12:51:26.967Z,26.00
2023-06-07T12:53:54.394Z,25.48
2023-06-07T12:56:22.109Z,26.29
2023-06-07T12:58:49.109Z,27.64
2023-06-07T13:01:16.956Z,27.24
2023-06-07T13:03:44.498Z,27.66
2023-06-07T13:06:12.028Z,27.65
2023-06-07T13:08:39.566Z,26.82
2023-06-07T13:11:06.533Z,25.61
2023-06-07T13:13:34.161Z,25.79
2023-06-07T13:16:01.290Z,27.46
2023-06-07T13:18:30.018Z,27.47
2023-06-07T13:20:57.097Z,28.80
2023-06-07T13:23:24.706Z,29.39
2023-06-07T13:25:51.534Z,28.90
2023-06-07T13:28:20.466Z,28.02
2023-06-07T13:30:47.793Z,29.63
2023-06-07T13:33:18.428Z,29.15
2023-06-07T13:35:45.538Z,28.21
2023-06-07T13:38:12.196Z,26.70
2023-06-07T13:40:39.117Z,27.31
2023-06-07T13:43:05.886Z,25.50
2023-06-07T13:45:32.527Z,26.44
2023-06-07T13:47:59.781Z,26.71
2023-06-07T13:50:26.580Z,27.37
2023-06-07T13:52:54.067Z,27.86
2023-06-07T13:55:21.904Z,26.90
2023-06-07T13:57:49.304Z,27.56
2023-06-07T14:00:16.508Z,27.92
2023-06-07T14:02:44.324Z,26.78
2023-06-07T14:05:11.512Z,28.75
2023-06-07T14:07:38.569Z,30.61
2023-06-07T14:10:06.013Z,31.33
2023-06-07T14:12:33.367Z,29.60
2023-06-07T14:15:00.392Z,31.08
2023-06-07T14:17:27.008Z,30.23
2023-06-07T14:19:53.679Z,31.51
2023-06-07T14:22:20.297Z,30.41
2023-06-07T14:24:46.960Z,27.92
2023-06-07T14:27:13.643Z,28.68
2023-06-07T14:29:40.289Z,29.76
2023-06-07T14:32:07.318Z,28.83
2023-06-07T14:34:33.933Z,28.02
2023-06-07T14:37:01.976Z,27.01
2023-06-07T14:39:28.767Z,28.83
2023-06-07T14:41:55.561Z,30.58
2023-06-07T14:44:22.361Z,29.11
2023-06-07T14:46:49.075Z,29.30
2023-06-07T14:49:16.262Z,29.30
2023-06-07T14:51:46.532Z,28.30
2023-06-07T14:54:13.166Z,28.88
2023-06-07T14:56:39.921Z,28.61
2023-06-07T14:59:06.802Z,29.75
2023-06-07T15:01:33.769Z,32.50
2023-06-07T15:04:00.522Z,30.99
2023-06-07T15:06:27.189Z,30.75
2023-06-07T15:08:54.557Z,31.35
2023-06-07T15:11:21.737Z,32.56
2023-06-07T15:13:48.995Z,32.01
2023-06-07T15:16:15.732Z,31.57
2023-06-07T15:18:42.585Z,31.72
2023-06-07T15:21:09.379Z,31.69
2023-06-07T15:23:37.578Z,31.11
2023-06-07T15:26:04.284Z,32.28
2023-06-07T15:28:31.512Z,31.39
2023-06-07T15:30:58.504Z,32.63
2023-06-07T15:33:25.535Z,32.70
2023-06-07T15:35:52.172Z,32.33
2023-06-07T15:38:18.857Z,33.00
2023-06-07T15:40:45.603Z,33.57
2023-06-07T15:43:12.251Z,32.75
2023-06-07T15:45:38.960Z,33.02
2023-06-07T15:48:06.170Z,34.23
2023-06-07T15:50:33.002Z,33.81
2023-06-07T15:53:00.345Z,33.06
2023-06-07T15:55:28.688Z,33.43
2023-06-07T15:57:56.286Z,32.30
2023-06-07T16:00:36.978Z,30.92
2023-06-07T16:03:05.803Z,32.00
2023-06-07T16:05:32.762Z,30.86
2023-06-07T16:08:04.461Z,33.26
2023-06-07T16:10:34.716Z,31.77
2023-06-07T16:13:01.355Z,33.67
2023-06-07T16:15:28.013Z,33.85
2023-06-07T16:17:54.984Z,33.18
2023-06-07T16:20:22.043Z,35.02
2023-06-07T16:22:48.985Z,34.33
2023-06-07T16:25:15.612Z,35.29
2023-06-07T16:27:42.261Z,35.45
2023-06-07T16:30:09.226Z,34.49
2023-06-07T16:32:35.899Z,35.74
2023-06-07T16:35:02.537Z,34.96
2023-06-07T16:37:29.225Z,35.01
2023-06-07T16:39:56.065Z,35.63
2023-06-07T16:42:23.112Z,35.73
2023-06-07T16:44:49.736Z,35.38
2023-06-07T16:47:16.350Z,34.88
2023-06-07T16:49:42.950Z,34.21
2023-06-07T16:52:11.337Z,33.52
2023-06-07T16:54:39.409Z,34.68
2023-06-07T16:57:06.241Z,34.87
2023-06-07T16:59:32.794Z,35.30
2023-06-07T17:02:00.333Z,35.47
2023-06-07T17:04:27.065Z,34.81
2023-06-07T17:06:53.768Z,34.67
2023-06-07T17:09:20.476Z,34.70
2023-06-07T17:11:47.164Z,34.99
2023-06-07T17:14:14.344Z,35.10
2023-06-07T17:16:41.146Z,35.83
2023-06-07T17:19:07.934Z,35.67
2023-06-07T17:21:34.586Z,35.78
2023-06-07T17:24:01.622Z,37.09
2023-06-07T17:26:28.191Z,35.80
2023-06-07T17:28:55.064Z,36.21
2023-06-07T17:31:21.671Z,37.24
2023-06-07T17:33:48.364Z,37.39
2023-06-07T17:36:14.942Z,36.64
2023-06-07T17:38:43.568Z,37.07
2023-06-07T17:41:10.682Z,37.40
2023-06-07T17:43:37.321Z,36.85
2023-06-07T17:46:04.061Z,35.80
2023-06-07T17:48:30.738Z,36.48
2023-06-07T17:50:57.408Z,37.68
2023-06-07T17:53:23.994Z,37.36
2023-06-07T17:55:50.761Z,37.94
2023-06-07T17:58:17.498Z,40.59
2023-06-07T18:00:44.150Z,41.40
2023-06-07T18:03:12.371Z,42.47
2023-06-07T18:05:39.413Z,42.65
2023-06-07T18:08:06.966Z,41.96
2023-06-07T18:10:33.710Z,41.82
2023-06-07T18:13:00.441Z,42.88
2023-06-07T18:15:27.488Z,42.28
2023-06-07T18:17:54.608Z,41.89
2023-06-07T18:20:21.637Z,43.16
2023-06-07T18:22:48.368Z,43.75
2023-06-07T18:25:15.898Z,42.38
2023-06-07T18:27:42.549Z,42.72
2023-06-07T18:30:09.553Z,42.97
2023-06-07T18:32:36.576Z,46.11
2023-06-07T18:35:04.209Z,44.11
2023-06-07T18:37:31.857Z,44.41
2023-06-07T18:40:00.498Z,43.85
2023-06-07T18:42:27.097Z,46.02
2023-06-07T18:44:53.641Z,45.11
2023-06-07T18:47:20.348Z,45.85
2023-06-07T18:49:47.025Z,46.74
2023-06-07T18:52:14.940Z,45.84
2023-06-07T18:54:41.506Z,46.09
2023-06-07T18:57:09.191Z,45.88
2023-06-07T18:59:35.907Z,46.03
2023-06-07T19:02:02.667Z,45.69
2023-06-07T19:04:30.173Z,47.07
2023-06-07T19:06:56.988Z,48.49
2023-06-07T19:09:23.818Z,48.75
2023-06-07T19:11:50.692Z,47.00
2023-06-07T19:14:19.192Z,46.85
2023-06-07T19:16:47.148Z,47.83
2023-06-07T19:19:14.532Z,49.04
2023-06-07T19:21:41.181Z,47.47
2023-06-07T19:24:08.104Z,47.48
2023-06-07T19:26:35.271Z,47.23
2023-06-07T19:29:02.487Z,47.92
2023-06-07T19:31:29.262Z,48.51
2023-06-07T19:33:56.225Z,47.25
2023-06-07T19:36:22.865Z,48.24
2023-06-07T19:38:49.507Z,48.11
2023-06-07T19:41:16.179Z,48.59
2023-06-07T19:43:42.847Z,48.30
2023-06-07T19:46:09.642Z,47.83
2023-06-07T19:48:40.548Z,47.51
2023-06-07T19:51:08.325Z,47.71
2023-06-07T19:53:34.982Z,48.38
2023-06-07T19:56:01.588Z,48.91
2023-06-07T19:58:28.655Z,48.42
2023-06-07T20:00:55.393Z,49.41
2023-06-07T20:03:22.501Z,49.22
2023-06-07T20:05:49.364Z,48.23
2023-06-07T20:08:16.006Z,48.14
2023-06-07T20:10:43.316Z,48.27
2023-06-07T20:13:14.218Z,49.61
2023-06-07T20:15:41.129Z,50.05
2023-06-07T20:18:07.795Z,48.46
2023-06-07T20:20:34.460Z,48.40
2023-06-07T20:23:01.088Z,49.16
2023-06-07T20:25:27.846Z,50.33
2023-06-07T20:27:54.508Z,49.70
2023-06-07T20:30:21.611Z,49.53
2023-06-07T20:32:48.285Z,48.73
2023-06-07T20:35:14.909Z,48.97
2023-06-07T20:37:41.607Z,50.05
2023-06-07T20:40:09.006Z,48.68
2023-06-07T20:42:35.674Z,49.43
2023-06-07T20:45:02.377Z,50.03
2023-06-07T20:47:29.031Z,50.72
2023-06-07T20:49:55.697Z,51.94
2023-06-07T20:52:22.364Z,52.80
2023-06-07T20:54:48.975Z,52.25
2023-06-07T20:57:15.607Z,53.14
2023-06-07T20:59:48.288Z,53.77
2023-06-07T21:02:14.958Z,53.95
2023-06-07T21:04:41.618Z,55.63
2023-06-07T21:07:08.350Z,55.08
2023-06-07T21:09:35.172Z,56.81
2023-06-07T21:12:01.836Z,56.26
2023-06-07T21:14:28.436Z,57.29
2023-06-07T21:16:55.172Z,57.36
2023-06-07T21:19:21.761Z,57.72
2023-06-07T21:21:48.326Z,57.74
2023-06-07T21:24:15.202Z,57.25
2023-06-07T21:26:42.188Z,58.97
2023-06-07T21:29:09.662Z,58.47
2023-06-07T21:31:38.283Z,58.21
2023-06-07T21:34:05.013Z,58.30
2023-06-07T21:36:31.887Z,58.08
2023-06-07T21:38:58.503Z,56.62
2023-06-07T21:41:26.876Z,57.67
2023-06-07T21:43:53.586Z,57.68
2023-06-07T21:46:20.182Z,58.59
2023-06-07T21:48:46.981Z,58.41
2023-06-07T21:51:14.598Z,58.83
2023-06-07T21:53:41.720Z,59.16
2023-06-07T21:56:08.536Z,59.99
2023-06-07T21:58:35.610Z,57.94
2023-06-07T22:01:03.086Z,58.22
2023-06-07T22:03:30.042Z,57.83
2023-06-07T22:05:56.771Z,59.77
2023-06-07T22:08:23.605Z,57.58
2023-06-07T22:10:50.300Z,58.59
2023-06-07T22:13:21.482Z,57.42
2023-06-07T22:15:51.636Z,57.42
2023-06-07T22:18:20.180Z,56.91
2023-06-07T22:20:47.800Z,58.17
2023-06-07T22:23:14.631Z,57.75
2023-06-07T22:25:42.127Z,57.28
2023-06-07T22:28:13.162Z,57.78
2023-06-07T22:30:41.275Z,58.29
2023-06-07T22:33:09.373Z,57.95
2023-06-07T22:35:36.212Z,58.77
2023-06-07T22:38:06.443Z,57.83
2023-06-07T22:40:34.414Z,57.49
2023-06-07T22:43:01.608Z,58.21
2023-06-07T22:45:29.369Z,59.12
2023-06-07T22:48:10.553Z,58.05
2023-06-07T22:50:39.243Z,58.27
2023-06-07T22:53:07.514Z,57.68
2023-06-07T22:55:34.732Z,58.54
2023-06-07T22:58:02.760Z,58.50
2023-06-07T23:00:29.690Z,59.35
2023-06-07T23:02:58.615Z,59.24
2023-06-07T23:05:28.214Z,60.26
2023-06-07T23:07:56.490Z,60.60
2023-06-07T23:10:35.395Z,60.34
2023-06-07T23:13:08.120Z,60.96
2023-06-07T23:15:36.432Z,60.74
2023-06-07T23:18:03.852Z,61.83
2023-06-07T23:20:33.873Z,61.92
2023-06-07T23:23:04.523Z,62.96
2023-06-07T23:25:31.791Z,62.08
2023-06-07T23:27:59.544Z,63.05
2023-06-07T23:30:27.210Z,63.32
2023-06-07T23:32:54.211Z,62.41
2023-06-07T23:35:21.411Z,62.48
2023-06-07T23:37:48.744Z,62.59
2023-06-07T23:40:16.975Z,62.46
2023-06-07T23:42:46.943Z,63.11
2023-06-07T23:45:14.427Z,63.11
2023-06-07T23:47:41.389Z,63.17
2023-06-07T23:50:09.181Z,63.78
2023-06-07T23:52:37.632Z,63.73
2023-06-07T23:55:04.624Z,62.80
2023-06-07T23:57:31.335Z,63.47
2023-06-07T23:59:57.985Z,63.53
